Time;durP1;ratioP1;P1;durP2;ratioP2;P2;SDS_P1;SDS_P2;PMS_P1;PMS_P2;Temp;Humidity;BMP_temperature;BMP_pressure;BME280_temperature;BME280_humidity;BME280_pressure;Samples;Min_cycle;Max_cycle;Signal;HPM_P1;HPM_P2
2021/06/30 00:00:47;;;;;;;316.05;285.88;;;;;;;20.87;70.46;93459.88;5090764;28;20127;-48
2021/06/30 00:03:12;;;;;;;259.38;236.68;;;;;;;20.83;70.49;93470.13;5090757;28;20516;-50
2021/06/30 00:05:38;;;;;;;174.65;164.15;;;;;;;20.84;70.09;93461.09;5097307;28;20027;-48
2021/06/30 00:08:04;;;;;;;92.80;88.00;;;;;;;20.87;69.85;93457.06;5110736;28;20436;-49
2021/06/30 00:10:29;;;;;;;97.88;92.95;;;;;;;20.87;69.85;93459.13;5109788;27;20067;-47
2021/06/30 00:12:55;;;;;;;98.13;92.60;;;;;;;20.80;69.98;93466.47;5110791;28;20068;-48
2021/06/30 00:15:25;;;;;;;93.13;88.18;;;;;;;20.75;70.15;93464.03;5101193;28;20036;-48
2021/06/30 00:17:50;;;;;;;90.88;86.25;;;;;;;20.69;69.66;93456.03;5097584;28;20107;-49
2021/06/30 00:20:16;;;;;;;78.68;74.78;;;;;;;20.67;68.85;93469.19;5089674;28;20027;-50
2021/06/30 00:22:41;;;;;;;86.43;82.05;;;;;;;20.64;69.31;93476.06;5090360;28;20036;-48
2021/06/30 00:25:08;;;;;;;87.28;82.93;;;;;;;20.54;69.73;93479.00;5090225;28;20024;-52
2021/06/30 00:27:34;;;;;;;86.07;81.57;;;;;;;20.55;69.85;93468.53;5090364;28;20023;-53
2021/06/30 00:30:00;;;;;;;90.43;85.88;;;;;;;20.32;69.90;93455.28;5090273;28;20088;-52
2021/06/30 00:32:25;;;;;;;81.20;76.90;;;;;;;20.54;69.30;93476.19;5089911;28;20028;-51
2021/06/30 00:34:51;;;;;;;69.82;66.13;;;;;;;20.52;69.16;93475.34;5089954;28;20024;-52
2021/06/30 00:37:18;;;;;;;73.70;69.78;;;;;;;20.48;69.25;93473.03;5090077;28;20027;-53
2021/06/30 00:39:43;;;;;;;78.07;73.88;;;;;;;20.38;69.59;93476.00;5089356;28;20219;-51
2021/06/30 00:42:09;;;;;;;83.35;78.75;;;;;;;20.30;70.21;93475.53;5105317;28;20024;-51
2021/06/30 00:44:34;;;;;;;83.90;79.32;;;;;;;20.23;70.55;93473.69;5110370;28;20545;-52
2021/06/30 00:47:01;;;;;;;84.78;80.18;;;;;;;20.27;70.24;93473.22;5110164;28;20043;-50
2021/06/30 00:49:26;;;;;;;81.70;77.47;;;;;;;20.20;70.16;93469.34;5110789;28;20069;-51
2021/06/30 00:51:52;;;;;;;72.88;69.15;;;;;;;20.09;69.83;93453.22;5099051;28;20027;-50
2021/06/30 00:54:17;;;;;;;81.88;77.60;;;;;;;20.19;69.54;93472.69;5110980;28;20023;-49
2021/06/30 00:56:43;;;;;;;72.53;68.82;;;;;;;20.05;69.31;93471.88;5110989;28;20485;-52
2021/06/30 00:59:11;;;;;;;74.68;70.88;;;;;;;20.19;69.65;93475.50;5110598;28;20047;-53
2021/06/30 01:01:36;;;;;;;76.57;72.38;;;;;;;20.15;69.82;93475.28;5110770;28;20023;-52
2021/06/30 01:04:01;;;;;;;82.35;78.00;;;;;;;20.10;70.26;93470.75;5109297;28;20035;-54
2021/06/30 01:06:27;;;;;;;83.30;78.97;;;;;;;20.05;70.33;93481.03;5109828;28;20028;-52
2021/06/30 01:08:52;;;;;;;82.72;78.13;;;;;;;20.11;70.06;93481.38;5108849;28;20046;-52
2021/06/30 01:11:18;;;;;;;78.40;74.38;;;;;;;19.99;69.88;93468.72;5109174;28;20035;-49
2021/06/30 01:13:44;;;;;;;81.80;77.65;;;;;;;20.00;70.18;93475.78;5110074;28;20026;-50
2021/06/30 01:16:10;;;;;;;80.35;75.97;;;;;;;19.94;70.05;93475.41;5110125;28;20019;-48
2021/06/30 01:18:36;;;;;;;77.30;73.22;;;;;;;19.95;70.05;93476.88;5109918;28;20496;-49
2021/06/30 02:21:06;;;;;;;105.75;100.65;;;;;;;19.48;68.70;93482.47;5105794;27;20884;-52
2021/06/30 02:23:31;;;;;;;88.40;84.03;;;;;;;19.51;69.49;93500.13;5106554;28;20491;-53
2021/06/30 02:25:57;;;;;;;75.00;70.63;;;;;;;19.40;69.88;93495.25;5106256;28;20032;-58
2021/06/30 02:28:22;;;;;;;71.28;67.40;;;;;;;19.31;70.28;93510.03;5106063;28;20457;-58
2021/06/30 02:30:48;;;;;;;67.10;63.53;;;;;;;19.28;70.10;93506.38;5106725;28;20073;-56
2021/06/30 02:33:13;;;;;;;68.25;64.65;;;;;;;19.23;70.18;93507.44;5106198;28;20027;-56
2021/06/30 02:35:41;;;;;;;64.55;60.45;;;;;;;19.16;69.94;93518.88;5106292;28;20016;-56
2021/06/30 02:38:07;;;;;;;63.58;60.03;;;;;;;19.12;69.95;93513.03;5104508;28;20040;-56
2021/06/30 02:40:32;;;;;;;63.38;59.95;;;;;;;19.11;70.35;93517.16;5105904;28;20020;-57
2021/06/30 02:42:58;;;;;;;68.03;64.43;;;;;;;19.05;70.69;93514.72;5106323;28;20008;-52
2021/06/30 02:45:23;;;;;;;66.20;62.47;;;;;;;19.01;70.62;93508.84;5106043;28;20046;-53
2021/06/30 02:47:50;;;;;;;68.90;64.90;;;;;;;19.00;70.74;93518.56;5106401;28;20141;-54
2021/06/30 02:50:18;;;;;;;64.22;60.90;;;;;;;18.90;70.48;93515.13;5106444;28;20445;-56
2021/06/30 02:52:44;;;;;;;64.83;61.30;;;;;;;18.82;71.13;93514.59;5105128;28;20016;-56
2021/06/30 02:55:11;;;;;;;70.78;66.90;;;;;;;18.80;71.27;93522.88;5103096;28;20016;-54
2021/06/30 02:57:36;;;;;;;65.68;61.90;;;;;;;18.83;71.90;93516.81;5103798;28;20442;-51
2021/06/30 03:00:09;;;;;;;66.95;63.20;;;;;;;18.81;71.69;93513.88;5105269;28;20023;-52
2021/06/30 03:02:35;;;;;;;68.65;64.80;;;;;;;18.85;71.38;93516.94;5104087;28;20015;-50
2021/06/30 03:05:00;;;;;;;65.78;62.28;;;;;;;18.82;71.44;93518.13;5106020;28;20412;-53
2021/06/30 03:07:26;;;;;;;65.97;62.30;;;;;;;18.70;70.88;93497.03;5106229;28;20024;-54
2021/06/30 03:09:51;;;;;;;65.65;61.70;;;;;;;18.79;70.80;93510.97;5106138;28;20024;-53
2021/06/30 03:12:16;;;;;;;61.33;57.88;;;;;;;18.77;71.49;93515.69;5105786;28;20027;-54
2021/06/30 03:14:43;;;;;;;60.15;56.78;;;;;;;18.73;71.77;93507.75;5096167;28;20032;-54
2021/06/30 03:17:08;;;;;;;62.92;59.08;;;;;;;18.75;71.95;93515.56;5092632;28;20046;-54
2021/06/30 03:19:34;;;;;;;64.63;61.03;;;;;;;18.66;71.82;93514.31;5090529;28;20036;-48
2021/06/30 03:21:59;;;;;;;63.55;59.85;;;;;;;18.60;71.80;93516.69;5092150;28;20032;-50
2021/06/30 03:24:24;;;;;;;64.75;61.05;;;;;;;18.61;71.93;93512.56;5092064;28;20031;-49
2021/06/30 03:26:50;;;;;;;63.28;59.75;;;;;;;18.61;72.02;93517.44;5091721;28;20024;-49
2021/06/30 03:29:15;;;;;;;65.82;61.15;;;;;;;18.68;72.25;93522.09;5086963;28;20489;-50
2021/06/30 03:31:41;;;;;;;72.97;66.95;;;;;;;18.72;72.33;93519.56;5089572;28;20516;-46
2021/06/30 03:34:06;;;;;;;116.85;106.10;;;;;;;18.71;72.63;93520.91;5089994;28;20478;-47
2021/06/30 03:36:32;;;;;;;67.82;63.05;;;;;;;18.73;72.22;93521.03;5089492;28;20023;-50
2021/06/30 03:38:57;;;;;;;63.08;58.80;;;;;;;18.71;72.31;93520.91;5090204;28;20020;-52
2021/06/30 03:41:23;;;;;;;64.35;60.22;;;;;;;18.71;72.46;93510.41;5089815;28;20027;-56
2021/06/30 03:43:49;;;;;;;61.15;57.03;;;;;;;18.73;72.77;93510.56;5090212;28;20016;-53
2021/06/30 03:46:14;;;;;;;63.95;58.67;;;;;;;18.73;73.07;93507.75;5090440;28;20511;-52
2021/06/30 03:48:40;;;;;;;64.13;59.28;;;;;;;18.82;73.06;93515.34;5087566;28;20017;-52
2021/06/30 03:51:05;;;;;;;57.70;53.97;;;;;;;18.77;73.05;93505.25;5071808;28;20024;-50
2021/06/30 03:53:31;;;;;;;63.08;59.08;;;;;;;18.89;71.88;93510.88;5071415;28;20417;-52
2021/06/30 03:55:56;;;;;;;64.47;60.42;;;;;;;18.90;71.79;93512.34;5071506;28;20027;-49
2021/06/30 03:58:22;;;;;;;65.82;61.67;;;;;;;18.89;71.75;93510.88;5076215;28;20027;-52
2021/06/30 04:00:47;;;;;;;64.65;60.38;;;;;;;18.88;72.05;93512.22;5091451;28;20024;-49
2021/06/30 04:03:13;;;;;;;61.13;56.90;;;;;;;18.91;72.80;93514.53;5091306;28;20024;-50
2021/06/30 04:05:38;;;;;;;62.17;58.15;;;;;;;18.96;73.02;93512.72;5091347;28;20016;-51
2021/06/30 04:08:09;;;;;;;65.57;61.42;;;;;;;19.00;73.12;93509.44;5091250;28;20020;-50
2021/06/30 04:10:34;;;;;;;62.55;58.55;;;;;;;19.02;73.37;93513.09;5091037;28;20035;-51
2021/06/30 04:13:00;;;;;;;66.05;61.90;;;;;;;19.03;73.46;93511.78;5091614;28;20020;-51
2021/06/30 04:15:26;;;;;;;64.88;61.35;;;;;;;19.10;73.57;93505.22;5091473;28;20043;-51
2021/06/30 04:17:52;;;;;;;65.05;60.95;;;;;;;19.13;73.44;93501.22;5091421;28;20052;-51
2021/06/30 04:20:17;;;;;;;66.25;62.53;;;;;;;19.16;73.55;93499.28;5091058;28;20508;-49
2021/06/30 04:22:43;;;;;;;67.68;63.38;;;;;;;19.20;73.48;93502.34;5091015;28;20485;-49
2021/06/30 04:25:09;;;;;;;69.13;64.88;;;;;;;19.24;73.58;93503.31;5090559;28;20027;-51
2021/06/30 04:27:34;;;;;;;69.53;65.45;;;;;;;19.29;73.40;93501.50;5090921;28;20020;-49
2021/06/30 04:30:00;;;;;;;70.40;66.00;;;;;;;19.33;73.64;93493.38;5091221;28;20028;-50
2021/06/30 04:32:26;;;;;;;70.25;66.05;;;;;;;19.35;73.51;93505.44;5090680;28;20526;-48
2021/06/30 04:34:51;;;;;;;68.65;64.20;;;;;;;19.33;74.04;93501.75;5091126;28;20047;-51
2021/06/30 04:37:17;;;;;;;72.82;68.80;;;;;;;19.43;74.19;93505.22;5090684;28;20035;-51
2021/06/30 04:39:42;;;;;;;72.95;68.70;;;;;;;19.47;74.62;93499.84;5090297;28;20028;-49
2021/06/30 04:54:55;;;;;;;98.45;93.43;;;;;;;20.54;71.70;93504.25;5127548;27;21209;-48
2021/06/30 04:57:21;;;;;;;115.15;109.47;;;;;;;20.54;72.52;93509.84;5127529;27;20046;-54
2021/06/30 04:59:46;;;;;;;113.80;107.82;;;;;;;20.47;72.79;93505.22;5127337;27;20034;-52
2021/06/30 05:02:11;;;;;;;104.68;98.85;;;;;;;20.44;73.08;93514.16;5127189;27;20034;-52
2021/06/30 05:04:37;;;;;;;110.18;104.60;;;;;;;20.45;73.14;93510.00;5114043;27;20034;-50
2021/06/30 05:07:03;;;;;;;105.40;99.25;;;;;;;20.47;73.41;93516.44;5106991;28;20595;-51
2021/06/30 05:09:28;;;;;;;105.13;99.80;;;;;;;20.50;73.07;93512.44;5106805;28;20111;-51
2021/06/30 05:11:55;;;;;;;95.97;90.72;;;;;;;20.56;72.78;93518.38;5118028;28;20023;-50
2021/06/30 05:14:20;;;;;;;95.00;89.88;;;;;;;20.57;72.86;93519.88;5113934;27;20683;-51
2021/06/30 05:16:46;;;;;;;111.82;106.10;;;;;;;20.63;73.49;93525.09;5108955;28;20026;-50
2021/06/30 05:19:11;;;;;;;109.55;103.50;;;;;;;20.65;74.06;93528.75;5127314;27;20031;-50
2021/06/30 05:21:37;;;;;;;115.63;108.93;;;;;;;20.71;73.68;93531.16;5127299;27;20088;-50
2021/06/30 05:24:02;;;;;;;116.93;110.28;;;;;;;20.80;74.22;93533.81;5127129;27;20408;-50
2021/06/30 05:26:28;;;;;;;118.28;111.95;;;;;;;20.88;74.26;93533.53;5127279;27;20403;-49
2021/06/30 05:28:53;;;;;;;118.53;112.63;;;;;;;20.96;74.32;93539.63;5127198;27;20041;-53
2021/06/30 05:31:19;;;;;;;119.57;112.82;;;;;;;21.01;74.77;93538.50;5127277;27;20023;-53
2021/06/30 05:33:44;;;;;;;121.65;114.55;;;;;;;21.04;75.07;93537.31;5126076;27;20098;-50
2021/06/30 05:36:10;;;;;;;120.63;114.25;;;;;;;21.05;75.00;93533.88;5115891;27;20473;-53
2021/06/30 05:38:36;;;;;;;116.15;109.95;;;;;;;21.19;75.33;93538.84;5107443;28;20028;-57
2021/06/30 05:41:02;;;;;;;117.00;110.60;;;;;;;21.30;75.23;93530.38;5115280;27;20027;-52
2021/06/30 05:43:28;;;;;;;115.97;109.25;;;;;;;21.42;75.02;93533.84;5117062;28;20068;-52
2021/06/30 05:45:54;;;;;;;110.03;103.90;;;;;;;21.50;74.67;93530.75;5124490;28;20053;-55
2021/06/30 05:48:19;;;;;;;104.60;99.25;;;;;;;21.58;73.88;93525.56;5114948;27;20115;-50
2021/06/30 05:50:45;;;;;;;75.85;71.65;;;;;;;21.68;73.07;93523.28;5106555;28;20031;-53
2021/06/30 05:53:10;;;;;;;89.40;81.75;;;;;;;21.82;72.44;93527.66;5126180;27;20561;-50
2021/06/30 05:55:36;;;;;;;63.72;60.33;;;;;;;21.92;72.35;93521.81;5110478;27;20844;-53
2021/06/30 05:58:01;;;;;;;61.65;57.95;;;;;;;21.98;72.58;93527.78;5101435;28;20419;-53
2021/06/30 06:00:26;;;;;;;56.22;52.92;;;;;;;22.06;72.24;93528.22;5111330;28;20088;-52
2021/06/30 06:02:52;;;;;;;42.83;40.13;;;;;;;22.14;72.60;93525.81;5102241;28;20385;-52
2021/06/30 06:05:17;;;;;;;51.25;48.25;;;;;;;22.21;72.64;93524.03;5091988;28;20100;-51
2021/06/30 06:07:43;;;;;;;39.78;37.28;;;;;;;22.25;71.77;93530.63;5095268;28;20408;-50
2021/06/30 06:10:10;;;;;;;37.65;35.42;;;;;;;22.16;71.12;93511.13;5090853;28;20657;-53
2021/06/30 06:12:36;;;;;;;39.58;37.22;;;;;;;22.41;70.57;93527.91;5107373;28;20463;-51
2021/06/30 06:15:04;;;;;;;34.35;32.20;;;;;;;22.50;69.96;93532.59;5110744;28;20040;-53
2021/06/30 06:17:30;;;;;;;32.53;30.47;;;;;;;22.54;70.59;93525.06;5111246;28;20020;-54
2021/06/30 06:19:55;;;;;;;26.10;24.35;;;;;;;22.67;68.32;93525.72;5111103;28;20026;-54
2021/06/30 06:22:20;;;;;;;34.05;31.35;;;;;;;22.75;69.17;93529.69;5111080;28;20104;-53
2021/06/30 06:24:46;;;;;;;26.40;24.40;;;;;;;22.88;68.26;93523.31;5097961;28;20508;-54
2021/06/30 06:27:11;;;;;;;19.88;17.92;;;;;;;22.95;67.87;93513.81;5093109;28;20672;-55
2021/06/30 06:29:37;;;;;;;19.20;17.80;;;;;;;23.06;66.48;93517.84;5108573;28;20450;-56
2021/06/30 06:32:04;;;;;;;21.10;19.27;;;;;;;23.18;67.32;93518.41;5110817;27;20031;-53
2021/06/30 06:34:30;;;;;;;19.33;17.65;;;;;;;23.29;65.44;93526.00;5111037;28;20072;-50
2021/06/30 06:36:56;;;;;;;18.52;17.13;;;;;;;23.46;63.31;93521.88;5109573;28;20035;-49
2021/06/30 06:39:21;;;;;;;19.02;17.30;;;;;;;23.53;64.25;93527.19;5110738;28;20090;-54
2021/06/30 06:41:47;;;;;;;15.48;14.30;;;;;;;23.66;62.62;93526.41;5111047;28;20106;-55
2021/06/30 06:44:14;;;;;;;15.65;14.23;;;;;;;23.81;61.73;93519.31;5110957;28;20487;-48
2021/06/30 06:46:39;;;;;;;14.25;13.05;;;;;;;23.87;61.20;93516.78;5109772;28;20031;-49
2021/06/30 06:49:29;;;;;;;16.27;14.70;;;;;;;23.86;62.81;93504.78;5110768;28;20039;-51
2021/06/30 06:51:55;;;;;;;15.90;14.48;;;;;;;23.93;61.57;93514.97;5091487;28;20054;-51
2021/06/30 06:54:20;;;;;;;16.00;14.80;;;;;;;24.03;61.40;93506.97;5090300;28;20144;-51
2021/06/30 06:56:46;;;;;;;14.50;13.20;;;;;;;24.09;60.80;93504.44;5090641;28;20024;-50
2021/06/30 06:59:12;;;;;;;16.20;15.00;;;;;;;24.27;62.37;93498.16;5090429;28;20024;-52
2021/06/30 07:01:37;;;;;;;15.32;14.02;;;;;;;24.24;60.51;93493.78;5109682;28;20028;-56
2021/06/30 07:04:03;;;;;;;14.13;12.93;;;;;;;24.27;60.99;93486.88;5110613;28;20027;-55
2021/06/30 07:06:29;;;;;;;15.20;14.05;;;;;;;24.38;61.82;93486.69;5109700;28;20521;-50
2021/06/30 07:08:54;;;;;;;14.93;13.57;;;;;;;24.38;61.06;93472.56;5110456;28;20088;-52
2021/06/30 07:11:20;;;;;;;15.75;14.45;;;;;;;24.52;62.79;93484.44;5110280;28;20027;-51
2021/06/30 07:13:47;;;;;;;14.65;13.32;;;;;;;24.64;62.27;93484.25;5109873;28;20027;-52
2021/06/30 07:16:12;;;;;;;14.73;13.48;;;;;;;24.72;63.32;93481.75;5110269;28;20098;-56
2021/06/30 07:18:38;;;;;;;12.60;11.43;;;;;;;24.89;59.56;93481.09;5109421;28;20407;-54
2021/06/30 07:21:04;;;;;;;11.20;10.40;;;;;;;24.97;57.80;93475.06;5109890;28;20420;-50
2021/06/30 07:23:30;;;;;;;12.15;10.90;;;;;;;25.10;58.16;93474.19;5108138;28;20015;-54
2021/06/30 07:25:56;;;;;;;11.68;10.68;;;;;;;25.17;57.78;93467.38;5108339;28;20054;-52
2021/06/30 07:28:22;;;;;;;12.05;11.05;;;;;;;25.32;59.02;93470.13;5108249;28;20020;-50
2021/06/30 07:30:48;;;;;;;11.40;10.27;;;;;;;25.48;58.08;93468.00;5109755;28;20488;-50
2021/06/30 07:33:13;;;;;;;10.38;9.48;;;;;;;25.72;57.42;93464.63;5110104;28;20020;-55
2021/06/30 07:35:39;;;;;;;11.02;10.13;;;;;;;25.84;58.07;93456.59;5109903;28;20072;-50
2021/06/30 07:38:05;;;;;;;10.32;9.43;;;;;;;26.23;56.45;93462.31;5109771;28;20114;-54
2021/06/30 07:40:32;;;;;;;10.43;9.55;;;;;;;26.39;56.58;93468.56;5109767;28;20043;-50
2021/06/30 07:42:58;;;;;;;9.32;8.35;;;;;;;26.61;55.78;93471.47;5109525;28;20019;-51
2021/06/30 07:45:24;;;;;;;9.27;8.48;;;;;;;26.78;54.04;93467.84;5109365;27;20023;-50
2021/06/30 07:47:50;;;;;;;9.85;8.95;;;;;;;26.85;54.39;93473.06;5109452;28;20016;-50
2021/06/30 07:50:16;;;;;;;11.98;9.32;;;;;;;27.10;53.31;93462.50;5109494;28;20074;-52
2021/06/30 07:52:44;;;;;;;9.82;8.88;;;;;;;27.25;52.20;93467.25;5108951;28;20023;-56
2021/06/30 07:55:09;;;;;;;9.93;8.95;;;;;;;27.51;53.16;93473.78;5109312;28;20089;-58
2021/06/30 07:57:35;;;;;;;12.50;8.85;;;;;;;27.89;51.25;93466.47;5091995;28;20024;-57
2021/06/30 08:00:00;;;;;;;9.60;8.70;;;;;;;28.12;51.75;93462.94;5089017;28;20020;-57
2021/06/30 08:02:26;;;;;;;8.95;8.05;;;;;;;28.46;51.66;93460.31;5088878;28;20096;-56
2021/06/30 08:04:51;;;;;;;9.88;8.90;;;;;;;28.57;50.00;93459.25;5101212;28;20101;-56
2021/06/30 08:07:17;;;;;;;10.20;8.25;;;;;;;28.95;50.88;93465.97;5108681;28;20061;-57
2021/06/30 08:09:42;;;;;;;12.00;8.57;;;;;;;29.19;49.10;93460.19;5109464;28;20035;-60
2021/06/30 08:12:09;;;;;;;11.48;8.77;;;;;;;29.64;48.33;93456.28;5108813;28;20031;-59
2021/06/30 08:14:35;;;;;;;12.35;8.50;;;;;;;29.93;48.75;93456.25;5101602;28;20054;-60
2021/06/30 08:17:02;;;;;;;12.63;8.77;;;;;;;30.25;47.94;93450.56;5108806;28;20499;-60
2021/06/30 08:19:27;;;;;;;9.15;8.25;;;;;;;30.43;46.84;93453.09;5103982;28;20055;-60
2021/06/30 08:21:52;;;;;;;9.32;7.93;;;;;;;30.79;45.29;93450.19;5089003;28;20507;-60
2021/06/30 08:24:18;;;;;;;11.43;8.80;;;;;;;30.97;43.21;93456.97;5088364;28;20417;-59
2021/06/30 08:26:44;;;;;;;9.73;8.73;;;;;;;30.66;43.99;93452.84;5088479;28;20036;-56
2021/06/30 08:29:11;;;;;;;10.65;8.23;;;;;;;30.61;43.98;93453.44;5095075;28;20032;-58
2021/06/30 08:31:36;;;;;;;8.90;8.00;;;;;;;30.82;45.54;93451.69;5108677;28;20119;-60
2021/06/30 08:34:02;;;;;;;9.60;8.73;;;;;;;31.02;47.04;93440.66;5109075;28;20102;-59
2021/06/30 08:36:27;;;;;;;9.73;8.77;;;;;;;31.07;43.09;93445.75;5109005;28;20518;-60
2021/06/30 08:38:53;;;;;;;12.23;11.07;;;;;;;31.22;43.06;93447.44;5108907;28;20707;-60
2021/06/30 08:41:19;;;;;;;9.52;8.43;;;;;;;31.16;42.07;93446.63;5102599;28;20054;-59
2021/06/30 08:43:45;;;;;;;9.15;8.27;;;;;;;31.13;43.08;93448.00;5088009;28;20035;-59
2021/06/30 08:46:11;;;;;;;8.40;7.72;;;;;;;31.13;42.55;93431.59;5088029;28;20032;-60
2021/06/30 08:48:37;;;;;;;9.02;8.05;;;;;;;31.45;40.31;93447.84;5088190;28;20063;-58
2021/06/30 08:51:03;;;;;;;8.50;7.72;;;;;;;31.41;39.80;93446.38;5091308;28;20023;-58
2021/06/30 08:53:29;;;;;;;8.80;8.00;;;;;;;31.37;40.67;93443.41;5104769;28;20470;-60
2021/06/30 08:55:55;;;;;;;8.18;7.45;;;;;;;31.39;40.67;93425.59;5087112;28;20031;-58
2021/06/30 08:58:21;;;;;;;8.50;7.70;;;;;;;31.58;42.37;93438.78;5088241;28;20043;-59
2021/06/30 09:00:47;;;;;;;8.77;7.90;;;;;;;31.30;40.74;93436.16;5088111;28;20028;-56
2021/06/30 09:03:16;;;;;;;9.05;8.02;;;;;;;31.22;41.64;93433.19;5088405;28;20092;-59
2021/06/30 09:08:21;;;;;;;8.70;7.90;;;;;;;31.24;44.78;93435.34;5088382;28;20401;-59
2021/06/30 09:10:47;;;;;;;9.82;7.10;;;;;;;31.45;41.14;93433.59;5090028;28;20084;-58
2021/06/30 09:13:23;;;;;;;8.55;7.80;;;;;;;31.55;39.26;93436.59;5108520;28;20027;-57
2021/06/30 09:15:59;;;;;;;12.35;8.90;;;;;;;31.36;40.00;93430.56;5108410;28;20031;-59
2021/06/30 09:18:37;;;;;;;8.57;7.78;;;;;;;31.80;41.59;93435.53;5106151;28;20027;-59
2021/06/30 09:21:24;;;;;;;8.25;7.45;;;;;;;32.36;40.02;93427.03;5107570;28;20038;-57
2021/06/30 09:23:58;;;;;;;7.85;7.07;;;;;;;32.61;39.59;93428.78;5107196;28;20059;-60
2021/06/30 09:26:24;;;;;;;10.20;7.07;;;;;;;32.77;39.32;93423.22;5106721;28;20042;-59
2021/06/30 09:28:50;;;;;;;129.85;22.30;;;;;;;32.71;40.54;93421.03;5106763;28;20098;-60
2021/06/30 09:31:16;;;;;;;62.85;58.33;;;;;;;32.56;38.33;93415.84;5110242;28;20089;-57
2021/06/30 09:33:48;;;;;;;8.52;7.90;;;;;;;32.36;39.88;93421.31;5111225;28;20027;-61
2021/06/30 09:36:14;;;;;;;8.88;8.18;;;;;;;32.46;40.86;93410.00;5109237;28;20597;-61
2021/06/30 09:38:43;;;;;;;9.73;8.45;;;;;;;32.75;39.50;93421.06;5111358;28;20035;-60
2021/06/30 09:41:16;;;;;;;11.50;8.05;;;;;;;32.65;38.98;93418.13;5112124;28;20031;-56
2021/06/30 09:43:42;;;;;;;8.57;7.40;;;;;;;32.53;38.58;93420.81;5110879;28;20026;-57
2021/06/30 09:46:19;;;;;;;8.02;7.22;;;;;;;32.54;39.54;93408.00;5111966;28;20035;-60
2021/06/30 09:48:53;;;;;;;9.30;7.60;;;;;;;32.85;39.65;93411.91;5111686;27;20511;-59
2021/06/30 09:51:19;;;;;;;7.57;6.88;;;;;;;32.88;38.10;93410.47;5105992;28;20056;-58
2021/06/30 09:53:45;;;;;;;8.57;7.65;;;;;;;33.02;38.43;93413.53;5091214;28;20071;-60
2021/06/30 09:56:32;;;;;;;7.40;6.75;;;;;;;33.04;38.53;93412.81;5091565;28;20036;-62
2021/06/30 09:59:02;;;;;;;7.20;6.50;;;;;;;32.82;37.88;93408.28;5091683;28;20417;-58
2021/06/30 10:01:27;;;;;;;12.70;7.18;;;;;;;32.95;38.18;93409.13;5090828;28;20032;-60
2021/06/30 10:03:53;;;;;;;7.93;7.03;;;;;;;33.05;38.38;93405.69;5090978;28;20116;-59
2021/06/30 10:06:27;;;;;;;8.40;6.65;;;;;;;32.94;36.06;93401.25;5090797;28;20036;-57
2021/06/30 10:08:52;;;;;;;9.55;6.88;;;;;;;32.90;35.85;93399.78;5090898;28;20032;-56
2021/06/30 10:11:18;;;;;;;10.45;7.43;;;;;;;32.98;37.17;93404.16;5095825;28;20102;-58
2021/06/30 10:13:43;;;;;;;9.15;7.28;;;;;;;33.05;36.94;93402.81;5111398;28;20028;-60
2021/06/30 10:16:09;;;;;;;10.20;7.35;;;;;;;33.24;38.15;93398.69;5111035;28;20558;-61
2021/06/30 10:18:34;;;;;;;9.63;7.47;;;;;;;33.52;36.70;93393.94;5111095;28;20039;-59
2021/06/30 10:21:00;;;;;;;11.40;6.97;;;;;;;33.71;36.50;93382.59;5110468;28;20406;-59
2021/06/30 10:23:29;;;;;;;8.05;6.88;;;;;;;34.03;35.46;93400.00;5109989;28;20024;-59
2021/06/30 10:25:55;;;;;;;8.48;7.60;;;;;;;33.60;34.55;93391.13;5110951;28;20042;-59
2021/06/30 10:28:20;;;;;;;9.32;7.45;;;;;;;33.84;35.46;93390.56;5110211;28;20169;-58
2021/06/30 10:30:46;;;;;;;9.35;6.97;;;;;;;33.99;37.97;93389.22;5104300;28;20114;-60
2021/06/30 10:33:32;;;;;;;11.43;7.25;;;;;;;34.25;37.32;93389.38;5109967;28;20027;-60
2021/06/30 10:35:58;;;;;;;10.38;6.85;;;;;;;34.79;34.21;93388.88;5089943;28;20089;-61
2021/06/30 10:38:43;;;;;;;8.15;5.75;;;;;;;34.91;33.41;93379.56;5090056;28;20027;-57
2021/06/30 10:41:35;;;;;;;10.00;6.68;;;;;;;35.10;35.01;93378.19;5089874;28;20032;-60
2021/06/30 10:44:08;;;;;;;10.65;9.75;;;;;;;35.42;36.06;93371.72;5090347;28;20023;-60
2021/06/30 10:46:33;;;;;;;11.55;7.53;;;;;;;36.20;33.28;93370.91;5108837;28;20130;-60
2021/06/30 10:49:17;;;;;;;7.28;6.35;;;;;;;35.91;32.77;93373.13;5110920;28;20106;-60
2021/06/30 10:51:49;;;;;;;10.50;6.53;;;;;;;36.13;30.49;93375.22;5110607;28;20089;-59
2021/06/30 10:54:33;;;;;;;8.07;5.75;;;;;;;36.19;31.21;93360.88;5110104;28;20051;-57
2021/06/30 10:57:23;;;;;;;10.07;6.35;;;;;;;35.53;29.65;93365.28;5098580;28;20412;-56
2021/06/30 11:00:01;;;;;;;10.27;5.97;;;;;;;35.04;31.37;93355.91;5099156;28;20078;-49
2021/06/30 11:02:31;;;;;;;11.27;6.72;;;;;;;34.58;32.35;93352.97;5101541;28;20113;-57
2021/06/30 11:04:56;;;;;;;12.88;6.85;;;;;;;34.36;35.17;93352.88;5098890;28;20100;-58
2021/06/30 11:07:34;;;;;;;9.77;6.00;;;;;;;33.96;33.71;93350.50;5100596;28;20028;-50
2021/06/30 11:10:21;;;;;;;10.20;5.90;;;;;;;34.02;32.17;93352.72;5099997;28;20028;-58
2021/06/30 11:12:54;;;;;;;9.18;6.25;;;;;;;33.71;33.68;93343.22;5100688;28;20019;-59
2021/06/30 11:15:38;;;;;;;11.65;6.22;;;;;;;33.88;35.95;93344.03;5098705;28;20027;-59
2021/06/30 11:18:04;;;;;;;9.18;6.85;;;;;;;33.82;33.31;93339.00;5100043;28;20028;-51
2021/06/30 11:20:49;;;;;;;9.95;6.25;;;;;;;33.90;34.75;93332.56;5095020;28;20036;-56
2021/06/30 11:23:23;;;;;;;7.35;6.00;;;;;;;34.30;34.33;93339.25;5098649;28;20103;-59
2021/06/30 11:25:49;;;;;;;8.40;6.65;;;;;;;34.51;34.30;93325.69;5098713;28;20028;-58
2021/06/30 11:28:41;;;;;;;10.45;6.53;;;;;;;34.45;35.50;93328.53;5106766;28;20096;-60
2021/06/30 11:31:24;;;;;;;9.40;6.43;;;;;;;34.17;34.01;93334.16;5107510;28;20032;-57
2021/06/30 11:34:21;;;;;;;12.30;6.63;;;;;;;34.20;35.22;93324.84;5109375;28;20484;-59
2021/06/30 11:36:46;;;;;;;10.30;7.00;;;;;;;34.61;36.56;93325.72;5109475;28;20508;-60
2021/06/30 11:39:15;;;;;;;11.02;6.07;;;;;;;33.95;32.81;93323.31;5109840;28;20073;-58
2021/06/30 11:41:46;;;;;;;8.98;7.20;;;;;;;33.34;35.66;93322.22;5100089;28;20076;-57
2021/06/30 11:44:11;;;;;;;12.43;6.97;;;;;;;33.45;36.37;93311.53;5107281;28;20046;-59
2021/06/30 11:46:38;;;;;;;12.93;6.88;;;;;;;33.44;35.36;93316.53;5104599;28;20027;-58
2021/06/30 11:49:06;;;;;;;8.68;6.90;;;;;;;33.11;36.87;93299.88;5108807;28;20417;-57
2021/06/30 11:51:31;;;;;;;13.43;7.83;;;;;;;33.20;35.78;93313.50;5107909;28;20432;-58
2021/06/30 11:53:57;;;;;;;9.73;6.47;;;;;;;33.17;35.48;93309.22;5105350;28;20043;-52
2021/06/30 11:56:31;;;;;;;11.75;7.05;;;;;;;33.10;36.03;93310.59;5097103;28;20036;-57
2021/06/30 11:58:57;;;;;;;10.02;6.47;;;;;;;33.04;34.81;93301.97;5094580;28;20526;-54
2021/06/30 12:01:39;;;;;;;11.43;7.15;;;;;;;33.09;36.79;93299.84;5095438;28;20073;-58
2021/06/30 12:04:12;;;;;;;10.38;6.85;;;;;;;33.09;35.97;93302.72;5087854;28;20016;-57
2021/06/30 12:06:38;;;;;;;10.10;6.50;;;;;;;33.07;35.16;93302.72;5087588;28;20039;-57
2021/06/30 12:09:14;;;;;;;10.50;6.90;;;;;;;32.95;36.04;93291.84;5087826;28;20461;-60
2021/06/30 12:11:46;;;;;;;15.38;7.47;;;;;;;32.92;36.54;93284.66;5096644;28;20038;-59
2021/06/30 12:14:14;;;;;;;10.60;7.97;;;;;;;33.06;36.89;93278.38;5096768;28;20031;-59
2021/06/30 12:16:42;;;;;;;13.80;7.07;;;;;;;32.98;37.69;93284.00;5108098;28;20034;-57
2021/06/30 12:19:13;;;;;;;9.50;6.63;;;;;;;32.96;36.88;93286.84;5105765;28;20041;-59
2021/06/30 12:21:39;;;;;;;7.85;7.05;;;;;;;32.48;36.55;93267.16;5087309;28;20035;-58
2021/06/30 12:24:19;;;;;;;12.55;8.30;;;;;;;32.59;36.77;93277.25;5089724;28;20024;-58
2021/06/30 12:27:14;;;;;;;8.75;7.57;;;;;;;32.62;37.66;93275.84;5089574;28;20412;-56
2021/06/30 12:29:40;;;;;;;10.98;7.20;;;;;;;32.78;38.34;93276.72;5088730;28;20054;-59
2021/06/30 12:32:12;;;;;;;8.80;7.03;;;;;;;32.75;37.95;93266.66;5088079;28;20440;-59
2021/06/30 12:34:39;;;;;;;15.45;7.68;;;;;;;32.88;39.39;93273.19;5088003;28;20020;-58
2021/06/30 12:37:05;;;;;;;10.90;8.02;;;;;;;32.84;39.48;93271.03;5090400;28;20020;-57
2021/06/30 12:39:33;;;;;;;10.70;7.40;;;;;;;32.78;39.16;93271.00;5108253;28;20122;-56